La Mesa, New Mexico
Current Conditions -  °F | °C
As of 8:15 AM on Thursday 18 Dec 2014 (Local Time) from KLRU Reporting Station
Clear Clear  
Wind Chill:   Ceiling: Unl
Heat Index:   Visibility: 10mi
Dew Point:   Wind: 6mph
Humidity: 76%   Direction: 320°NW
Pressure: 30.16"   Gusts: NA
Location:  32.12°N, 106.71°W
Report Text: KLRU 181515Z AUTO 32005KT 10SM CLR 06/02 A3016 RMK AO2 T00560016
Loading
Personal Weather Stations






























Interactive Weather Map New forecast layout! Learn more

10-Day Weather Forecast

Advertisements
Track Severe Weather on mobile